Huvudsida
METAR-TAF:

METAR-TAF

Flygplatser :

Bergens flygplats. Flesland

Bergen, Norge

latitud: 60-17N, longitud: 005-14E, höjd: 5 m

Aktuellt väderrapport

Denna rapport gjordes för 11 minuter sedan, klockan 13:20 UTC
Vind 3 kt från nord/nordväst, varierande mellan väst/nordväst och nord
Temperatur 10°C
Fuktighet 71%
Tryck 1015 hPa
Sikt 10 km eller mer
Få moln på en höjd av 2300 ft
Spridda moln på en höjd av 22000 ft

METAR: ENBR 151320Z 34003KT 300V360 9999 FEW023 SCT220 10/05 Q1015 NOSIG RMK WIND 1200FT VRB03KT

Tid: 15:31 (13:31 UTC)

Väderprognos

Prognos gäller från 15 kl. 12 UTC till 16 kl. 12 UTC
Vind 3 kt varierande vindriktning
Sikt 10 km eller mer
Få moln på en höjd av 2000 ft
Blir
från 16 kl. 07 UTC till 16 kl. 10 UTC
Vind 10 kt från syd/sydost

TAF: ENBR 1512/1612 VRB03KT 9999 FEW020 BECMG 1607/1610 15010KT

Aktuella väderrapporter och prognoser från 4000 flygplatser (METAR- och TAF-rapporter).

De tillgängliga stationerna syns som gula och röda prickar på kartan.

För musen över prickarna för att se namnen på stationerna.

Klicka sedan för att få väderrapporter och prognoser.

För att ändra kartan: Klicka på de gröna knapparna med ett svart kors på för att zooma in; den gröna knappen med ett streck på för att zooma ut; eller på de gröna pilarna för angränsande kartor.


METAR-TAF: